Time;durP1;ratioP1;P1;durP2;ratioP2;P2;SDS_P1;SDS_P2;PMS_P1;PMS_P2;Temp;Humidity;BMP_temperature;BMP_pressure;BME280_temperature;BME280_humidity;BME280_pressure;Samples;Min_cycle;Max_cycle;Signal;HPM_P1;HPM_P2
2023/07/15 00:02:10;;;;;;;31.92;29.63;;;23.60;99.90;;;;;;5032548;28;20026;-76
2023/07/15 00:04:37;;;;;;;37.40;35.00;;;23.70;99.90;;;;;;5033223;28;20372;-75
2023/07/15 00:07:05;;;;;;;39.72;37.08;;;23.70;99.90;;;;;;5033026;28;20041;-76
2023/07/15 00:09:33;;;;;;;38.35;35.75;;;23.70;99.90;;;;;;5031689;28;20378;-75
2023/07/15 00:11:59;;;;;;;36.55;34.13;;;23.70;99.90;;;;;;5015595;28;20048;-75
2023/07/15 00:14:28;;;;;;;32.85;30.75;;;23.70;99.90;;;;;;5031971;28;20026;-76
2023/07/15 00:16:54;;;;;;;40.58;38.03;;;23.60;99.90;;;;;;5032262;28;20040;-75
2023/07/15 00:19:20;;;;;;;29.55;27.73;;;23.70;99.90;;;;;;5032864;28;20029;-75
2023/07/15 00:21:47;;;;;;;30.20;28.20;;;23.60;99.90;;;;;;5030390;28;20030;-76
2023/07/15 00:24:13;;;;;;;30.98;28.75;;;23.60;99.90;;;;;;5032432;28;20060;-76
2023/07/15 00:26:40;;;;;;;23.88;22.15;;;23.60;99.90;;;;;;5015161;28;20041;-75
2023/07/15 00:29:07;;;;;;;29.15;26.88;;;23.60;99.90;;;;;;5031654;28;20025;-76
2023/07/15 00:31:34;;;;;;;29.58;27.75;;;23.50;99.90;;;;;;5030956;28;20045;-75
2023/07/15 00:34:00;;;;;;;31.85;29.77;;;23.40;99.90;;;;;;5032720;28;20041;-76
2023/07/15 00:36:29;;;;;;;26.75;25.02;;;23.30;99.90;;;;;;5011987;28;20030;-76
2023/07/15 00:38:55;;;;;;;30.73;28.42;;;23.40;99.90;;;;;;5015173;28;20034;-75
2023/07/15 00:41:31;;;;;;;33.95;31.73;;;23.40;99.90;;;;;;5032350;28;20481;-75
2023/07/15 00:44:00;;;;;;;38.55;36.20;;;23.40;99.90;;;;;;5014486;28;20049;-75
2023/07/15 00:46:49;;;;;;;32.97;30.75;;;23.40;99.90;;;;;;5031884;28;20038;-76
2023/07/15 00:49:23;;;;;;;33.95;31.65;;;23.50;99.90;;;;;;5030702;28;20041;-76
2023/07/15 00:52:10;;;;;;;31.02;29.05;;;23.40;99.90;;;;;;5031153;28;20025;-76
2023/07/15 00:54:38;;;;;;;33.92;31.73;;;23.30;99.90;;;;;;5030895;28;20028;-75
2023/07/15 00:57:08;;;;;;;29.30;27.40;;;23.30;99.90;;;;;;5031012;28;20036;-75
2023/07/15 00:59:35;;;;;;;29.83;27.98;;;23.40;99.90;;;;;;5031237;28;20048;-75
2023/07/15 01:02:01;;;;;;;29.05;27.10;;;23.30;99.90;;;;;;5031611;28;20045;-75
2023/07/15 01:04:27;;;;;;;26.95;24.90;;;23.30;99.90;;;;;;5032233;28;20054;-76
2023/07/15 01:06:54;;;;;;;28.67;26.75;;;23.20;99.90;;;;;;5031801;28;20041;-75
2023/07/15 01:09:21;;;;;;;27.70;25.85;;;23.20;99.90;;;;;;5031922;28;20025;-76
2023/07/15 01:11:47;;;;;;;28.60;26.73;;;23.10;99.90;;;;;;5032190;28;20519;-76
2023/07/15 01:14:13;;;;;;;29.27;27.48;;;23.10;99.90;;;;;;5031161;28;20041;-76
2023/07/15 01:16:42;;;;;;;33.28;30.95;;;23.00;99.90;;;;;;5031407;28;20033;-75
2023/07/15 01:19:08;;;;;;;29.77;27.80;;;23.00;99.90;;;;;;5031257;28;20474;-76
2023/07/15 01:21:34;;;;;;;36.45;34.03;;;22.90;99.90;;;;;;5031858;28;20032;-76
2023/07/15 01:24:01;;;;;;;49.35;46.25;;;23.00;99.90;;;;;;5030438;28;20042;-76
2023/07/15 01:26:28;;;;;;;44.72;41.92;;;23.00;99.90;;;;;;5030747;28;20029;-76
2023/07/15 01:28:54;;;;;;;50.85;48.05;;;22.90;99.90;;;;;;5032020;28;20029;-76
2023/07/15 01:31:20;;;;;;;39.72;37.42;;;22.90;99.90;;;;;;5031440;28;20034;-76
2023/07/15 01:33:47;;;;;;;39.50;37.25;;;23.00;99.90;;;;;;5032063;28;20062;-76
2023/07/15 01:36:13;;;;;;;49.33;45.80;;;23.00;99.90;;;;;;5030074;28;20025;-75
2023/07/15 01:38:41;;;;;;;40.25;37.90;;;23.00;99.90;;;;;;5030805;28;20030;-75
2023/07/15 01:41:07;;;;;;;43.95;41.03;;;22.90;99.90;;;;;;5031769;28;20033;-76
2023/07/15 01:43:33;;;;;;;41.70;39.10;;;22.80;99.90;;;;;;5031814;28;20022;-76
2023/07/15 01:45:59;;;;;;;39.83;37.42;;;22.80;99.90;;;;;;5031201;28;20052;-76
2023/07/15 01:48:26;;;;;;;39.22;36.95;;;22.80;99.90;;;;;;5032017;28;20021;-76
2023/07/15 01:50:52;;;;;;;36.25;33.95;;;22.70;99.90;;;;;;5029994;28;20053;-75
2023/07/15 01:53:18;;;;;;;37.35;35.08;;;22.70;99.90;;;;;;5030680;28;20036;-75
2023/07/15 01:55:44;;;;;;;33.45;31.40;;;22.70;99.90;;;;;;5031631;28;20030;-76
2023/07/15 01:58:10;;;;;;;31.20;29.33;;;22.70;99.90;;;;;;5031384;28;20033;-76
2023/07/15 02:00:36;;;;;;;38.28;35.85;;;22.70;99.90;;;;;;5027234;28;20041;-75
2023/07/15 02:03:03;;;;;;;38.83;35.97;;;22.60;99.90;;;;;;5030875;28;20033;-76
2023/07/15 02:05:29;;;;;;;38.90;36.47;;;22.60;99.90;;;;;;5012717;28;20053;-76
2023/07/15 02:07:55;;;;;;;37.60;35.42;;;22.70;99.90;;;;;;5033137;28;20382;-75
2023/07/15 02:10:23;;;;;;;49.60;46.70;;;22.80;99.90;;;;;;5033780;28;20030;-76
2023/07/15 02:12:49;;;;;;;40.28;37.85;;;22.80;99.90;;;;;;5013140;28;20042;-76
2023/07/15 02:15:15;;;;;;;39.15;36.75;;;22.80;99.90;;;;;;5013547;28;20034;-75
2023/07/15 02:17:43;;;;;;;37.42;34.95;;;22.80;99.90;;;;;;5033089;28;20033;-76
2023/07/15 02:20:12;;;;;;;36.72;34.38;;;22.80;99.90;;;;;;5033358;28;20033;-76
2023/07/15 02:22:39;;;;;;;37.67;35.33;;;22.80;99.90;;;;;;5033769;28;20375;-75
2023/07/15 02:25:05;;;;;;;39.80;37.55;;;22.80;99.90;;;;;;5034189;28;20049;-76
2023/07/15 02:27:31;;;;;;;38.50;36.33;;;22.80;99.90;;;;;;5033557;28;20033;-76
2023/07/15 02:29:58;;;;;;;40.15;37.65;;;22.80;99.90;;;;;;5032556;28;20026;-75
2023/07/15 02:32:38;;;;;;;39.75;37.42;;;22.80;99.90;;;;;;5032999;28;20064;-75
2023/07/15 02:35:08;;;;;;;35.75;33.28;;;22.80;99.90;;;;;;5033454;28;20034;-75
2023/07/15 02:37:38;;;;;;;35.67;33.47;;;22.80;99.90;;;;;;5032472;28;20483;-75
2023/07/15 02:40:06;;;;;;;37.00;34.88;;;22.80;99.90;;;;;;5033599;28;20033;-75
2023/07/15 02:42:33;;;;;;;36.15;33.95;;;22.80;99.90;;;;;;5033455;28;20029;-75
2023/07/15 02:45:06;;;;;;;36.55;34.03;;;22.80;99.90;;;;;;5034673;28;20044;-75
2023/07/15 02:47:32;;;;;;;37.63;34.65;;;22.80;99.90;;;;;;5032382;28;20041;-76
2023/07/15 02:50:01;;;;;;;37.55;35.00;;;22.80;99.90;;;;;;5033145;28;20046;-76
2023/07/15 02:52:27;;;;;;;35.80;33.13;;;22.80;99.90;;;;;;5033263;28;20080;-76
2023/07/15 02:54:53;;;;;;;36.22;33.85;;;22.80;99.90;;;;;;5033237;28;20037;-75
2023/07/15 02:57:19;;;;;;;34.42;32.45;;;22.70;99.90;;;;;;5034527;28;20025;-75
2023/07/15 02:59:45;;;;;;;36.85;34.72;;;22.70;99.90;;;;;;5033162;28;20041;-76
2023/07/15 03:02:11;;;;;;;37.10;34.85;;;22.70;99.90;;;;;;5033839;28;20402;-75
2023/07/15 03:04:37;;;;;;;36.97;34.65;;;22.70;99.90;;;;;;5033993;28;20044;-75
2023/07/15 03:07:04;;;;;;;36.75;34.47;;;22.70;99.90;;;;;;5032990;28;20378;-75
2023/07/15 03:09:30;;;;;;;37.03;34.78;;;22.70;99.90;;;;;;5034467;28;20033;-76
2023/07/15 03:11:56;;;;;;;36.53;34.17;;;22.70;99.90;;;;;;5033855;28;20033;-74
2023/07/15 03:14:22;;;;;;;39.20;36.40;;;22.60;99.90;;;;;;5032529;28;20375;-75
2023/07/15 03:16:49;;;;;;;38.28;35.95;;;22.60;99.90;;;;;;5033527;28;20042;-76
2023/07/15 03:19:15;;;;;;;38.20;35.88;;;22.70;99.90;;;;;;5034084;28;20397;-75
2023/07/15 03:21:41;;;;;;;40.38;37.58;;;22.70;99.90;;;;;;5033800;28;20037;-76
2023/07/15 03:24:07;;;;;;;40.55;38.13;;;22.60;99.90;;;;;;5032978;28;20470;-76
2023/07/15 03:26:33;;;;;;;38.80;36.30;;;22.50;99.90;;;;;;5032527;28;20045;-76
2023/07/15 03:28:59;;;;;;;41.35;38.70;;;22.50;99.90;;;;;;5033938;28;20036;-76
2023/07/15 03:31:25;;;;;;;40.90;38.05;;;22.50;99.90;;;;;;5021944;28;20411;-75
2023/07/15 03:33:53;;;;;;;39.92;37.17;;;22.60;99.90;;;;;;5012665;28;20030;-76
2023/07/15 03:36:19;;;;;;;36.20;33.83;;;22.40;99.90;;;;;;5012628;28;20816;-76
2023/07/15 03:38:45;;;;;;;39.25;36.75;;;22.40;99.90;;;;;;5012762;28;20041;-76
2023/07/15 03:41:12;;;;;;;37.33;34.78;;;22.40;99.90;;;;;;5012343;28;20037;-76
2023/07/15 03:43:38;;;;;;;40.05;37.45;;;22.30;99.90;;;;;;4996402;28;20046;-75
2023/07/15 03:46:04;;;;;;;40.88;38.38;;;22.30;99.90;;;;;;5013127;28;20498;-76
2023/07/15 03:48:30;;;;;;;38.33;35.92;;;22.30;99.90;;;;;;5012353;28;20026;-76
2023/07/15 03:50:56;;;;;;;38.13;35.45;;;22.20;99.90;;;;;;5013529;28;20514;-76
2023/07/15 03:53:22;;;;;;;35.95;33.35;;;22.20;99.90;;;;;;5012467;28;20030;-75
2023/07/15 03:55:48;;;;;;;40.15;37.58;;;22.20;99.90;;;;;;5013483;28;20394;-76
2023/07/15 03:58:14;;;;;;;42.05;39.65;;;22.10;99.90;;;;;;5013703;28;20037;-75
2023/07/15 04:00:41;;;;;;;44.60;41.83;;;22.10;99.90;;;;;;5011980;28;20034;-75
2023/07/15 04:03:07;;;;;;;59.25;55.65;;;22.10;99.90;;;;;;5011927;28;20026;-76
2023/07/15 04:05:33;;;;;;;52.83;49.78;;;22.10;99.90;;;;;;5013571;28;20045;-75
2023/07/15 04:07:59;;;;;;;56.92;53.67;;;22.20;99.90;;;;;;5013091;28;20361;-74
2023/07/15 04:10:26;;;;;;;53.28;50.28;;;22.20;99.90;;;;;;5012226;28;20045;-75
2023/07/15 04:12:52;;;;;;;56.78;53.08;;;22.20;99.90;;;;;;5012231;28;20036;-75
2023/07/15 04:15:18;;;;;;;54.53;51.33;;;22.20;99.90;;;;;;5012700;28;20471;-75
2023/07/15 04:17:44;;;;;;;53.45;50.22;;;22.20;99.90;;;;;;5012900;28;20494;-75
2023/07/15 04:20:14;;;;;;;47.50;44.97;;;22.20;99.90;;;;;;5012075;28;20034;-76
2023/07/15 04:22:40;;;;;;;37.10;34.92;;;22.10;99.90;;;;;;4993459;28;20030;-75
2023/07/15 04:25:07;;;;;;;34.97;32.65;;;22.00;99.90;;;;;;4992461;28;20042;-77
2023/07/15 04:27:34;;;;;;;37.38;35.08;;;21.90;99.90;;;;;;5011358;28;20391;-76
2023/07/15 04:30:02;;;;;;;36.30;33.92;;;21.90;99.90;;;;;;5013042;28;20026;-75
2023/07/15 04:32:29;;;;;;;30.83;28.73;;;21.90;99.90;;;;;;5011651;28;20038;-76
2023/07/15 04:34:55;;;;;;;33.40;31.10;;;22.00;99.90;;;;;;5013067;28;20033;-76
2023/07/15 04:37:22;;;;;;;32.88;30.65;;;22.00;99.90;;;;;;5012693;28;20034;-75
2023/07/15 04:39:48;;;;;;;27.48;25.55;;;22.00;99.90;;;;;;5012853;28;20424;-75
2023/07/15 04:42:14;;;;;;;26.10;24.25;;;22.00;99.90;;;;;;4995034;28;20045;-76
2023/07/15 04:44:41;;;;;;;29.15;26.58;;;22.00;99.90;;;;;;5012749;28;20391;-75
2023/07/15 04:47:07;;;;;;;28.13;25.55;;;22.00;99.90;;;;;;5012100;28;20041;-75
2023/07/15 04:49:33;;;;;;;26.23;24.25;;;22.00;99.90;;;;;;5011393;28;20061;-76
2023/07/15 04:52:00;;;;;;;29.92;27.67;;;22.00;99.90;;;;;;5011376;28;20046;-75
2023/07/15 04:54:27;;;;;;;28.75;26.65;;;22.00;99.90;;;;;;5011641;28;20061;-76
2023/07/15 04:56:53;;;;;;;26.52;24.73;;;22.00;99.90;;;;;;5012932;28;20042;-75
2023/07/15 04:59:19;;;;;;;25.30;23.33;;;22.00;99.90;;;;;;5011102;28;20033;-74
2023/07/15 05:01:45;;;;;;;22.20;20.02;;;22.00;99.90;;;;;;4994329;28;20045;-76
2023/07/15 05:04:12;;;;;;;25.98;23.83;;;22.00;99.90;;;;;;5012441;28;20037;-76
2023/07/15 05:06:38;;;;;;;23.15;21.20;;;22.00;99.90;;;;;;5012354;28;20395;-75
2023/07/15 05:09:04;;;;;;;23.33;21.38;;;21.90;99.90;;;;;;5012477;28;20025;-75
2023/07/15 05:11:31;;;;;;;21.15;19.33;;;21.90;99.90;;;;;;5011153;28;20025;-75
2023/07/15 05:13:57;;;;;;;21.98;19.95;;;21.90;99.90;;;;;;5011030;28;20022;-74
2023/07/15 05:16:23;;;;;;;21.40;19.67;;;21.90;99.90;;;;;;5010779;28;20060;-76
2023/07/15 05:18:49;;;;;;;20.13;18.23;;;21.90;99.90;;;;;;5012415;28;20026;-76
2023/07/15 05:21:16;;;;;;;18.20;16.48;;;21.90;99.90;;;;;;5012313;28;20042;-76
2023/07/15 05:23:42;;;;;;;21.85;18.98;;;21.80;99.90;;;;;;5012448;28;20036;-76
2023/07/15 05:26:08;;;;;;;18.98;17.38;;;21.80;99.90;;;;;;5010803;28;20038;-76
2023/07/15 05:28:35;;;;;;;20.00;18.42;;;21.80;99.90;;;;;;5010770;28;20030;-75
2023/07/15 05:31:01;;;;;;;20.45;18.27;;;21.80;99.90;;;;;;5010336;28;20505;-76
2023/07/15 05:33:27;;;;;;;20.88;18.90;;;21.80;99.90;;;;;;5011037;28;20026;-76
2023/07/15 05:35:54;;;;;;;20.50;18.70;;;21.80;99.90;;;;;;5012783;28;20037;-75
2023/07/15 05:38:24;;;;;;;16.77;15.05;;;22.00;99.90;;;;;;5016417;28;20034;-75
2023/07/15 05:40:51;;;;;;;19.48;17.70;;;22.00;99.90;;;;;;5015940;28;20029;-75
2023/07/15 05:43:18;;;;;;;19.50;17.85;;;22.00;99.90;;;;;;5016154;28;20034;-74
2023/07/15 05:45:45;;;;;;;18.40;16.48;;;22.00;99.90;;;;;;5015757;28;20050;-75
2023/07/15 05:48:11;;;;;;;19.80;17.92;;;22.10;99.90;;;;;;4995312;28;20042;-75
2023/07/15 05:50:37;;;;;;;20.02;18.48;;;22.10;99.90;;;;;;4998681;28;20038;-75
2023/07/15 05:53:04;;;;;;;22.33;20.20;;;22.10;99.90;;;;;;5015915;28;20049;-76
2023/07/15 05:55:32;;;;;;;22.30;19.27;;;22.10;99.90;;;;;;5014598;28;20369;-76
2023/07/15 05:58:00;;;;;;;24.08;21.55;;;22.10;99.90;;;;;;5014468;28;20030;-75
2023/07/15 06:00:26;;;;;;;24.77;22.55;;;22.20;99.90;;;;;;5013705;28;20041;-76
2023/07/15 06:02:52;;;;;;;26.98;24.58;;;22.20;99.90;;;;;;5015817;28;20030;-75
2023/07/15 06:05:19;;;;;;;29.55;27.08;;;22.30;99.90;;;;;;5014360;28;20049;-75
2023/07/15 06:07:48;;;;;;;28.17;26.00;;;22.30;99.90;;;;;;5016175;28;20045;-75
2023/07/15 06:10:14;;;;;;;26.90;24.35;;;22.30;99.90;;;;;;5014309;28;20030;-76
2023/07/15 06:12:41;;;;;;;27.42;24.73;;;22.20;99.90;;;;;;5015341;28;20029;-75
2023/07/15 06:15:08;;;;;;;25.90;23.33;;;22.20;99.90;;;;;;5014185;28;20049;-74
2023/07/15 06:17:34;;;;;;;25.15;22.95;;;22.20;99.90;;;;;;5015115;28;20033;-75
2023/07/15 06:20:00;;;;;;;25.60;23.45;;;22.20;99.90;;;;;;5014452;28;20042;-76
2023/07/15 06:22:26;;;;;;;25.52;23.38;;;22.20;99.90;;;;;;5014134;28;20025;-75
2023/07/15 06:24:52;;;;;;;22.70;20.70;;;22.10;99.90;;;;;;5015339;28;20037;-75
2023/07/15 06:27:19;;;;;;;25.52;22.98;;;22.20;99.90;;;;;;4997440;28;20042;-75
2023/07/15 06:29:47;;;;;;;24.88;22.58;;;22.20;99.90;;;;;;5015340;28;20030;-76
2023/07/15 06:32:13;;;;;;;26.70;24.42;;;22.20;99.90;;;;;;5014590;28;20038;-75
2023/07/15 06:34:39;;;;;;;26.38;24.38;;;22.40;99.90;;;;;;5014099;28;20030;-75
2023/07/15 06:37:05;;;;;;;27.10;24.58;;;22.50;99.90;;;;;;5013697;28;20037;-75
2023/07/15 06:39:31;;;;;;;27.52;25.30;;;22.70;99.90;;;;;;5014043;28;20033;-75
2023/07/15 06:41:57;;;;;;;29.23;26.63;;;22.70;99.90;;;;;;5014499;28;20057;-75
2023/07/15 06:44:26;;;;;;;29.75;27.42;;;22.70;99.90;;;;;;5014108;28;20030;-75
2023/07/15 06:46:52;;;;;;;33.33;30.52;;;22.70;99.90;;;;;;5013865;28;20384;-76
2023/07/15 06:49:18;;;;;;;35.40;31.95;;;22.80;99.90;;;;;;5014198;28;20046;-76
2023/07/15 06:51:44;;;;;;;30.27;27.58;;;22.80;99.90;;;;;;5014620;28;20034;-76
2023/07/15 06:54:10;;;;;;;32.10;29.65;;;22.80;99.90;;;;;;5013819;28;20022;-76
2023/07/15 06:56:37;;;;;;;29.35;26.98;;;22.70;99.90;;;;;;5012313;28;20033;-75
2023/07/15 06:59:03;;;;;;;28.73;26.23;;;22.80;99.90;;;;;;4995508;28;20488;-76
2023/07/15 07:01:29;;;;;;;28.98;26.33;;;22.80;99.90;;;;;;5014083;28;20355;-76
2023/07/15 07:03:55;;;;;;;33.63;30.95;;;22.70;99.90;;;;;;5014630;28;20368;-75
2023/07/15 07:06:21;;;;;;;31.20;28.67;;;22.60;99.90;;;;;;5014292;28;20046;-76
2023/07/15 07:08:48;;;;;;;26.58;24.52;;;22.70;99.90;;;;;;5014616;28;20026;-75
2023/07/15 07:11:14;;;;;;;28.63;26.10;;;22.80;99.90;;;;;;5013038;28;20036;-75
2023/07/15 07:13:41;;;;;;;26.42;23.02;;;22.90;99.90;;;;;;5013248;28;20022;-75
2023/07/15 07:16:07;;;;;;;27.63;25.13;;;23.00;99.90;;;;;;4993290;28;20039;-75
2023/07/15 07:18:33;;;;;;;25.70;23.42;;;23.00;99.90;;;;;;4994832;28;20030;-75
2023/07/15 07:20:59;;;;;;;29.80;27.00;;;22.90;99.90;;;;;;5000309;28;20041;-76
2023/07/15 07:23:25;;;;;;;30.02;27.48;;;22.90;99.90;;;;;;5014266;28;20026;-75
2023/07/15 07:25:52;;;;;;;31.30;28.50;;;22.90;99.90;;;;;;5013760;28;20475;-76
2023/07/15 07:28:23;;;;;;;31.70;29.40;;;23.00;99.90;;;;;;5014504;28;20471;-76
2023/07/15 07:30:50;;;;;;;33.17;30.27;;;23.20;99.90;;;;;;5012365;28;20053;-76
2023/07/15 07:33:16;;;;;;;43.42;40.03;;;23.20;99.90;;;;;;5012660;28;20033;-76
2023/07/15 07:35:46;;;;;;;40.70;37.97;;;23.30;99.90;;;;;;5013691;28;20037;-75
2023/07/15 07:38:13;;;;;;;38.67;35.38;;;23.20;99.90;;;;;;5013078;28;20041;-76
2023/07/15 07:40:39;;;;;;;39.90;36.88;;;23.10;99.90;;;;;;5013438;28;20376;-75
2023/07/15 07:43:05;;;;;;;38.78;35.97;;;23.10;99.90;;;;;;5014020;28;20033;-76
2023/07/15 07:45:31;;;;;;;41.83;38.58;;;23.10;99.90;;;;;;5013069;28;20403;-76
2023/07/15 07:47:57;;;;;;;35.17;32.13;;;23.10;99.90;;;;;;5013869;28;20415;-75
2023/07/15 07:50:23;;;;;;;31.73;28.80;;;23.10;99.90;;;;;;5013567;28;20046;-77
2023/07/15 07:52:49;;;;;;;27.30;24.85;;;23.10;99.90;;;;;;5013704;28;20399;-76
2023/07/15 07:55:15;;;;;;;42.60;39.80;;;22.80;99.90;;;;;;5013236;28;20030;-76
2023/07/15 07:57:41;;;;;;;42.17;39.20;;;22.50;99.90;;;;;;5013807;28;20382;-75
2023/07/15 08:00:09;;;;;;;44.22;41.22;;;22.30;99.90;;;;;;5012994;28;20033;-75
2023/07/15 08:02:35;;;;;;;20.95;18.58;;;22.10;99.90;;;;;;5013481;28;20022;-75
2023/07/15 08:05:01;;;;;;;19.77;17.00;;;21.90;99.90;;;;;;5012136;28;20045;-75
2023/07/15 08:07:27;;;;;;;124.55;116.07;;;21.90;99.90;;;;;;5013221;28;20037;-75
2023/07/15 08:09:53;;;;;;;398.25;370.13;;;22.00;99.90;;;;;;5013247;28;20030;-75
2023/07/15 08:12:19;;;;;;;350.77;328.67;;;22.30;99.90;;;;;;5013001;28;20037;-75
2023/07/15 08:14:45;;;;;;;84.97;79.18;;;22.50;99.90;;;;;;5013384;28;20030;-74
2023/07/15 08:17:11;;;;;;;45.75;42.83;;;22.80;99.90;;;;;;5012751;28;20037;-75
2023/07/15 08:19:37;;;;;;;43.67;40.50;;;23.10;99.90;;;;;;5013242;28;20479;-74
2023/07/15 08:22:04;;;;;;;58.20;54.65;;;23.40;99.90;;;;;;5013042;28;20034;-75
2023/07/15 08:24:30;;;;;;;50.63;47.45;;;23.70;99.90;;;;;;5012919;28;20487;-75
2023/07/15 08:26:56;;;;;;;48.40;45.17;;;23.80;99.90;;;;;;5012909;28;20053;-75
2023/07/15 08:29:22;;;;;;;51.13;48.05;;;24.10;99.90;;;;;;5013148;28;20037;-75
2023/07/15 08:31:48;;;;;;;44.58;41.63;;;24.20;99.90;;;;;;5012470;28;20034;-75
2023/07/15 08:34:14;;;;;;;37.72;35.38;;;24.30;99.90;;;;;;5013164;28;20041;-75
2023/07/15 08:36:40;;;;;;;36.38;34.08;;;24.30;99.90;;;;;;5012570;28;20026;-74
2023/07/15 08:39:06;;;;;;;36.10;33.65;;;24.30;99.90;;;;;;5011584;28;20032;-75
2023/07/15 08:41:32;;;;;;;35.90;33.42;;;24.40;99.90;;;;;;5012618;28;20472;-75
2023/07/15 08:43:59;;;;;;;33.17;31.27;;;24.40;99.90;;;;;;5011723;28;20037;-74
2023/07/15 08:46:28;;;;;;;31.40;29.38;;;24.40;99.90;;;;;;5010962;28;20499;-75
2023/07/15 08:48:55;;;;;;;32.60;30.55;;;24.30;99.90;;;;;;5012808;28;20042;-75
2023/07/15 08:51:31;;;;;;;29.15;26.98;;;24.20;99.90;;;;;;5012292;28;20037;-76
2023/07/15 08:53:57;;;;;;;29.92;27.92;;;24.00;99.90;;;;;;5012691;28;20490;-75
2023/07/15 08:56:24;;;;;;;28.42;26.83;;;24.00;99.90;;;;;;4994602;28;20050;-76
2023/07/15 08:58:50;;;;;;;26.30;24.50;;;23.90;99.90;;;;;;5011624;28;20029;-76
2023/07/15 09:01:16;;;;;;;26.27;24.48;;;23.90;99.90;;;;;;5011606;28;20061;-76
2023/07/15 09:03:42;;;;;;;25.20;23.45;;;23.90;99.90;;;;;;5011328;28;20029;-76
2023/07/15 09:06:09;;;;;;;28.33;26.52;;;23.90;99.90;;;;;;4991434;28;20061;-76
2023/07/15 09:08:35;;;;;;;23.73;22.02;;;24.00;99.90;;;;;;4975391;28;20034;-76
2023/07/15 09:11:03;;;;;;;23.98;22.40;;;24.00;99.90;;;;;;4999239;28;20405;-76
2023/07/15 09:13:32;;;;;;;28.88;27.02;;;24.00;99.90;;;;;;5011008;28;20070;-76
2023/07/15 09:15:59;;;;;;;26.35;24.55;;;24.10;99.90;;;;;;5010478;28;20440;-75
2023/07/15 09:18:25;;;;;;;29.35;27.38;;;24.20;99.90;;;;;;5011321;28;20065;-76
2023/07/15 09:20:58;;;;;;;29.38;27.48;;;24.20;99.90;;;;;;5010727;28;20033;-76
2023/07/15 09:23:24;;;;;;;27.08;25.30;;;24.20;99.90;;;;;;5011163;28;20041;-76
2023/07/15 09:25:53;;;;;;;28.30;26.52;;;24.10;99.90;;;;;;5010725;28;20045;-76
2023/07/15 09:28:22;;;;;;;31.63;29.80;;;24.00;99.90;;;;;;5011297;28;20037;-76
2023/07/15 09:30:48;;;;;;;25.92;24.40;;;23.50;99.90;;;;;;4994051;28;20053;-76
2023/07/15 09:33:31;;;;;;;25.30;23.95;;;23.00;99.90;;;;;;5012503;28;20037;-76
2023/07/15 09:35:57;;;;;;;22.85;21.52;;;22.80;99.90;;;;;;5010454;28;20029;-74
2023/07/15 09:38:23;;;;;;;17.33;16.33;;;22.70;99.90;;;;;;5012251;28;20037;-75
2023/07/15 09:40:49;;;;;;;21.88;20.38;;;22.50;99.90;;;;;;5011999;28;20037;-75
2023/07/15 09:43:16;;;;;;;23.40;21.88;;;22.50;99.90;;;;;;5011182;28;20030;-76
2023/07/15 09:45:42;;;;;;;31.58;29.67;;;22.70;99.90;;;;;;5011546;28;20049;-76
2023/07/15 09:48:18;;;;;;;33.00;31.23;;;22.80;99.90;;;;;;5012115;28;20026;-76
2023/07/15 09:50:44;;;;;;;34.05;32.15;;;23.00;99.90;;;;;;5011448;28;20053;-76
2023/07/15 09:53:10;;;;;;;34.03;32.15;;;23.30;99.90;;;;;;5010897;28;20030;-76
2023/07/15 09:55:37;;;;;;;28.13;26.63;;;23.50;99.90;;;;;;5010769;28;20419;-75
2023/07/15 09:58:14;;;;;;;26.77;25.30;;;23.70;99.90;;;;;;5011097;28;20046;-75
2023/07/15 10:00:42;;;;;;;22.95;21.55;;;23.90;99.90;;;;;;5011269;28;20491;-76
2023/07/15 10:03:12;;;;;;;27.83;26.23;;;24.20;99.90;;;;;;5012125;28;20375;-75
2023/07/15 10:05:38;;;;;;;24.45;23.15;;;24.30;99.90;;;;;;5010144;28;20034;-75
2023/07/15 10:08:04;;;;;;;27.92;26.33;;;24.40;99.90;;;;;;4994849;28;20395;-76
2023/07/15 10:10:30;;;;;;;28.27;26.58;;;24.50;99.90;;;;;;5011803;28;20034;-75
2023/07/15 10:12:56;;;;;;;31.75;29.88;;;24.40;99.90;;;;;;5010676;28;20063;-76
2023/07/15 10:15:23;;;;;;;30.52;28.60;;;24.30;99.90;;;;;;5011215;28;20046;-75
2023/07/15 10:17:49;;;;;;;28.48;26.65;;;24.30;99.90;;;;;;4994616;28;20034;-75
2023/07/15 10:20:17;;;;;;;30.27;28.38;;;24.30;99.90;;;;;;5010255;28;20046;-76
2023/07/15 10:22:44;;;;;;;27.65;26.13;;;24.30;99.90;;;;;;5012628;28;20463;-76
2023/07/15 10:25:11;;;;;;;27.42;25.70;;;24.50;99.90;;;;;;5014494;28;20052;-76
2023/07/15 10:27:37;;;;;;;28.58;26.80;;;24.60;99.90;;;;;;4994402;28;20061;-76
2023/07/15 10:30:20;;;;;;;33.75;31.92;;;24.90;99.90;;;;;;4995946;28;20038;-76
2023/07/15 10:33:01;;;;;;;32.22;30.45;;;25.10;99.90;;;;;;4995472;28;20049;-75
2023/07/15 10:35:39;;;;;;;30.60;28.75;;;25.30;99.90;;;;;;4997868;28;20033;-76
2023/07/15 10:38:21;;;;;;;31.50;29.80;;;25.50;99.90;;;;;;4994568;28;20038;-77
2023/07/15 10:40:48;;;;;;;34.95;32.80;;;25.70;99.90;;;;;;5000446;28;20041;-76
2023/07/15 10:43:21;;;;;;;34.35;32.25;;;25.60;99.90;;;;;;5013850;28;20410;-76
2023/07/15 10:45:52;;;;;;;35.60;33.40;;;25.70;99.90;;;;;;5013129;28;20038;-76
2023/07/15 10:48:19;;;;;;;;;;;25.80;99.90;;;;;;5015106;28;20037;-76
2023/07/15 10:50:51;;;;;;;29.95;28.05;;;25.60;99.90;;;;;;5014636;28;19917;-76
2023/07/15 10:53:26;;;;;;;22.20;20.77;;;25.50;99.90;;;;;;5013844;28;20032;-75
2023/07/15 10:56:04;;;;;;;23.70;22.13;;;25.60;99.90;;;;;;5013196;28;20042;-76
2023/07/15 10:58:32;;;;;;;29.05;27.20;;;25.50;99.90;;;;;;5014937;28;20026;-76
2023/07/15 11:01:00;;;;;;;29.67;27.75;;;25.60;99.90;;;;;;4996363;28;20030;-76
2023/07/15 11:03:30;;;;;;;30.88;28.55;;;25.70;99.90;;;;;;5013159;28;20022;-76
2023/07/15 11:06:01;;;;;;;21.65;19.83;;;25.80;99.90;;;;;;5013356;28;20509;-76
2023/07/15 11:08:27;;;;;;;22.75;20.85;;;25.80;99.90;;;;;;5013586;28;20041;-75
2023/07/15 11:11:01;;;;;;;20.70;19.02;;;25.80;99.90;;;;;;5013091;28;20483;-76
2023/07/15 11:13:27;;;;;;;24.70;22.67;;;25.80;99.90;;;;;;5013400;28;20383;-76
2023/07/15 11:15:53;;;;;;;20.33;18.67;;;26.00;99.90;;;;;;4996219;28;20045;-76
2023/07/15 11:18:21;;;;;;;21.90;19.90;;;26.10;99.60;;;;;;5013105;28;20740;-75
2023/07/15 11:20:48;;;;;;;23.65;22.00;;;26.20;99.50;;;;;;5014093;28;20041;-76
2023/07/15 11:23:15;;;;;;;22.38;20.75;;;26.30;99.80;;;;;;5013406;28;20535;-77
2023/07/15 11:25:41;;;;;;;22.92;21.17;;;26.30;99.70;;;;;;5012805;28;20456;-76
2023/07/15 11:28:09;;;;;;;23.75;21.95;;;26.20;99.60;;;;;;5013062;28;20497;-77
2023/07/15 11:30:45;;;;;;;25.67;23.85;;;26.20;99.90;;;;;;5012422;28;20033;-76
2023/07/15 11:33:12;;;;;;;27.98;25.65;;;26.40;99.90;;;;;;5012781;28;20029;-76
2023/07/15 11:35:39;;;;;;;25.75;23.70;;;26.60;99.90;;;;;;5013596;28;20033;-76
2023/07/15 11:38:11;;;;;;;26.23;24.23;;;26.80;99.90;;;;;;5012982;28;20041;-76
2023/07/15 11:40:54;;;;;;;25.25;23.02;;;26.90;99.60;;;;;;5013844;28;20459;-74
2023/07/15 11:43:21;;;;;;;24.95;23.05;;;27.00;98.60;;;;;;4996347;28;20042;-76
2023/07/15 11:45:47;;;;;;;22.92;21.42;;;27.10;98.90;;;;;;5011905;28;20038;-76
2023/07/15 11:48:20;;;;;;;24.50;22.65;;;27.20;98.80;;;;;;5012709;28;20030;-76
2023/07/15 11:50:46;;;;;;;29.15;26.92;;;27.30;98.00;;;;;;5012358;28;20069;-76
2023/07/15 11:53:30;;;;;;;26.42;24.45;;;27.30;95.60;;;;;;5012826;28;20030;-76
2023/07/15 11:55:57;;;;;;;27.08;25.08;;;27.20;96.00;;;;;;5012287;28;20030;-76
2023/07/15 11:58:37;;;;;;;31.50;29.27;;;27.20;95.90;;;;;;5012678;28;20029;-76
2023/07/15 12:01:07;;;;;;;25.95;24.13;;;27.30;95.10;;;;;;4995168;28;20038;-76
2023/07/15 12:03:34;;;;;;;32.97;30.52;;;27.30;94.90;;;;;;5012448;28;20038;-76
2023/07/15 12:06:00;;;;;;;30.35;28.45;;;27.20;93.30;;;;;;5011971;28;20038;-75
2023/07/15 12:08:26;;;;;;;26.83;24.92;;;27.00;93.80;;;;;;5013634;28;20037;-76
2023/07/15 12:10:56;;;;;;;37.25;34.90;;;27.00;93.50;;;;;;5012154;28;20041;-76
2023/07/15 12:13:22;;;;;;;32.25;30.20;;;27.10;93.80;;;;;;5012525;28;20042;-76
2023/07/15 12:15:48;;;;;;;28.90;26.90;;;27.20;93.30;;;;;;5012792;28;20511;-76
2023/07/15 12:18:14;;;;;;;29.42;27.52;;;27.30;93.40;;;;;;5012350;28;20468;-76
2023/07/15 12:20:40;;;;;;;29.30;27.48;;;27.20;93.20;;;;;;5013049;28;20034;-75
2023/07/15 12:23:08;;;;;;;28.65;26.83;;;27.20;93.70;;;;;;5013362;28;20029;-76
2023/07/15 12:25:34;;;;;;;30.83;28.80;;;27.30;93.50;;;;;;5011874;28;20026;-76
2023/07/15 12:28:00;;;;;;;37.00;34.58;;;27.40;93.40;;;;;;5012013;28;20049;-75
2023/07/15 12:30:26;;;;;;;44.72;42.42;;;27.60;93.00;;;;;;5012254;28;20038;-76